Time;durP1;ratioP1;P1;durP2;ratioP2;P2;SDS_P1;SDS_P2;PMS_P1;PMS_P2;Temp;Humidity;BMP_temperature;BMP_pressure;BME280_temperature;BME280_humidity;BME280_pressure;Samples;Min_cycle;Max_cycle;Signal;HPM_P1;HPM_P2
2022/09/20 00:01:15;;;;;;;5.75;2.80;;;;;;;3.66;84.20;94352.47;5011172;28;20057;-70
2022/09/20 00:03:45;;;;;;;4.53;2.42;;;;;;;3.54;84.35;94358.88;5013634;28;20042;-68
2022/09/20 00:06:14;;;;;;;6.60;2.65;;;;;;;3.51;84.87;94358.81;5012997;28;20056;-70
2022/09/20 00:08:41;;;;;;;6.05;2.60;;;;;;;3.38;84.46;94358.16;5013564;28;20038;-68
2022/09/20 00:11:14;;;;;;;12.30;5.97;;;;;;;3.31;84.28;94360.75;5012930;28;20087;-66
2022/09/20 00:13:43;;;;;;;12.57;6.35;;;;;;;3.31;83.88;94347.97;5013649;28;20042;-69
2022/09/20 00:16:13;;;;;;;10.65;4.05;;;;;;;3.28;84.23;94354.13;5011724;28;20042;-68
2022/09/20 00:18:40;;;;;;;6.32;3.33;;;;;;;3.29;84.77;94352.19;5013449;28;20050;-69
2022/09/20 00:21:14;;;;;;;5.85;2.83;;;;;;;3.32;85.36;94348.75;5013436;28;20107;-69
2022/09/20 00:23:40;;;;;;;7.27;2.90;;;;;;;3.30;84.93;94343.69;5012482;28;20312;-70
2022/09/20 00:26:07;;;;;;;6.90;3.05;;;;;;;3.31;84.96;94342.53;5013460;28;20061;-69
2022/09/20 00:28:33;;;;;;;7.35;2.72;;;;;;;3.33;84.46;94342.97;5012529;28;20085;-69
2022/09/20 00:31:00;;;;;;;6.97;2.75;;;;;;;3.28;85.09;94346.00;5013392;28;20103;-70
2022/09/20 00:35:06;;;;;;;76.75;34.80;;;;;;;3.29;84.98;94336.69;5012338;28;20054;-70
2022/09/20 00:36:14;;;;;;;9.13;4.37;;;;;;;3.19;86.75;94342.69;5003014;28;20049;-71
2022/09/20 00:38:41;;;;;;;6.63;3.40;;;;;;;3.23;85.95;94342.78;5012996;28;20042;-69
2022/09/20 00:41:08;;;;;;;6.45;2.92;;;;;;;3.26;86.29;94342.84;5012953;28;20038;-69
2022/09/20 00:43:43;;;;;;;7.35;3.00;;;;;;;3.26;85.16;94336.63;5011842;28;20801;-69
2022/09/20 00:46:25;;;;;;;6.95;3.20;;;;;;;3.23;85.51;94329.22;5012571;28;20045;-67
2022/09/20 00:48:57;;;;;;;7.13;2.80;;;;;;;3.27;85.17;94325.41;5012851;28;20076;-69
2022/09/20 00:51:28;;;;;;;5.82;2.80;;;;;;;3.24;85.17;94336.19;5010879;28;20056;-69
2022/09/20 00:53:59;;;;;;;5.75;2.60;;;;;;;3.22;84.87;94333.06;5012849;28;20479;-68
2022/09/20 00:56:36;;;;;;;5.70;2.67;;;;;;;3.09;85.66;94327.78;5012031;28;20046;-69
2022/09/20 00:59:13;;;;;;;9.30;3.65;;;;;;;3.13;84.95;94334.06;5012517;28;20049;-70
2022/09/20 01:01:41;;;;;;;8.80;3.60;;;;;;;3.11;85.48;94322.78;5009562;28;20677;-69
2022/09/20 01:04:08;;;;;;;12.90;5.13;;;;;;;3.06;85.52;94325.00;5012637;28;20091;-69
2022/09/20 01:06:35;;;;;;;30.73;11.93;;;;;;;2.98;86.27;94321.38;5011267;28;20871;-69
2022/09/20 01:09:04;;;;;;;11.48;4.70;;;;;;;2.90;86.18;94325.88;5012240;28;20451;-70
2022/09/20 01:11:31;;;;;;;10.00;4.18;;;;;;;2.93;86.07;94316.22;5011491;28;20050;-69
2022/09/20 01:13:57;;;;;;;9.33;4.60;;;;;;;2.92;86.84;94320.09;5012332;28;20259;-70
2022/09/20 01:16:25;;;;;;;7.78;2.83;;;;;;;2.90;85.21;94315.03;5011776;28;20124;-69
2022/09/20 01:18:57;;;;;;;6.75;2.80;;;;;;;2.82;84.60;94324.16;5012541;28;20046;-69
2022/09/20 01:21:26;;;;;;;80.60;33.55;;;;;;;2.76;84.60;94325.56;5011471;28;20384;-69
2022/09/20 01:24:26;;;;;;;13.15;6.30;;;;;;;2.71;84.96;94328.56;5012044;28;20053;-69
2022/09/20 01:27:12;;;;;;;12.03;5.57;;;;;;;2.65;86.00;94325.34;5010039;28;20119;-69
2022/09/20 01:30:03;;;;;;;7.20;3.80;;;;;;;2.71;86.55;94323.91;5010859;28;21798;-69
2022/09/20 01:32:50;;;;;;;6.57;3.33;;;;;;;2.70;86.70;94322.34;5011347;28;20052;-69
2022/09/20 01:35:20;;;;;;;6.30;3.13;;;;;;;2.64;86.76;94323.78;5004887;28;20053;-70
2022/09/20 01:38:17;;;;;;;5.97;2.95;;;;;;;2.69;86.76;94328.13;5011873;28;20053;-69
2022/09/20 01:41:11;;;;;;;6.40;2.87;;;;;;;2.66;86.67;94326.91;5009875;28;20068;-69
2022/09/20 01:43:53;;;;;;;7.00;2.78;;;;;;;2.65;86.90;94327.25;5010592;28;20367;-69
2022/09/20 01:46:24;;;;;;;6.25;3.08;;;;;;;2.58;87.18;94327.91;5011029;28;20054;-69
2022/09/20 01:48:58;;;;;;;7.13;3.10;;;;;;;2.55;87.18;94332.09;5011705;28;20042;-69
2022/09/20 01:51:51;;;;;;;6.68;3.05;;;;;;;2.56;87.10;94332.91;5010893;28;20064;-68
2022/09/20 01:54:37;;;;;;;6.73;2.67;;;;;;;2.61;86.56;94329.88;5010967;28;20045;-70
2022/09/20 01:57:34;;;;;;;6.63;2.67;;;;;;;2.59;86.26;94338.38;5011663;28;20501;-68
2022/09/20 02:00:04;;;;;;;6.95;3.45;;;;;;;2.59;85.94;94338.38;5010803;28;20840;-69
2022/09/20 02:02:58;;;;;;;8.77;3.78;;;;;;;2.59;85.93;94337.59;5010795;28;20091;-68
2022/09/20 02:05:53;;;;;;;7.57;3.00;;;;;;;2.56;86.22;94341.03;5006548;28;20060;-68
2022/09/20 02:08:47;;;;;;;9.53;3.60;;;;;;;2.52;85.88;94338.22;5010672;28;20376;-69
2022/09/20 02:11:35;;;;;;;8.90;4.25;;;;;;;2.52;85.58;94340.94;5011054;28;20402;-68
2022/09/20 02:14:22;;;;;;;8.00;3.65;;;;;;;2.54;85.77;94346.00;5011391;28;20090;-68
2022/09/20 02:16:54;;;;;;;7.07;3.20;;;;;;;2.38;86.45;94344.13;5010557;28;20721;-68
2022/09/20 02:19:36;;;;;;;7.60;3.50;;;;;;;2.42;86.43;94336.06;5010513;28;20050;-68
2022/09/20 02:22:36;;;;;;;6.97;3.50;;;;;;;2.42;86.65;94338.00;5010238;28;20107;-69
2022/09/20 02:25:39;;;;;;;8.60;3.40;;;;;;;2.36;87.14;94332.84;5010257;28;20888;-69
2022/09/20 02:28:27;;;;;;;7.63;3.17;;;;;;;2.39;86.33;94332.16;5010273;28;21769;-68
2022/09/20 02:31:06;;;;;;;6.53;2.88;;;;;;;2.33;86.22;94332.75;4994716;28;20725;-69
2022/09/20 02:33:47;;;;;;;6.07;3.05;;;;;;;2.32;87.02;94333.91;5010327;28;20041;-69
2022/09/20 02:36:35;;;;;;;6.47;2.67;;;;;;;2.23;87.07;94323.25;4996444;28;20054;-68
2022/09/20 02:39:18;;;;;;;5.45;2.30;;;;;;;2.29;86.64;94329.19;5010633;28;20049;-69
2022/09/20 02:41:45;;;;;;;6.68;2.97;;;;;;;2.25;86.79;94326.38;5009592;28;20405;-69
2022/09/20 02:44:23;;;;;;;5.65;2.72;;;;;;;2.20;86.46;94322.03;5010241;28;20049;-68
2022/09/20 02:47:08;;;;;;;5.85;2.42;;;;;;;2.15;87.12;94324.22;5010615;28;20053;-69
2022/09/20 02:49:45;;;;;;;4.87;2.57;;;;;;;2.09;87.09;94325.63;5008810;28;21509;-68
2022/09/20 02:52:32;;;;;;;7.22;3.05;;;;;;;2.14;87.10;94328.88;5009440;28;20068;-69
2022/09/20 02:55:07;;;;;;;7.45;3.20;;;;;;;2.14;87.52;94337.00;5007920;28;20054;-69
2022/09/20 02:57:43;;;;;;;6.72;3.22;;;;;;;2.19;87.39;94333.22;5005932;28;20052;-69
2022/09/20 03:00:16;;;;;;;8.40;2.88;;;;;;;2.20;87.06;94332.09;5009660;28;20046;-69
2022/09/20 03:03:04;;;;;;;6.63;2.60;;;;;;;2.16;87.28;94331.22;5009453;28;20050;-69
2022/09/20 03:05:34;;;;;;;5.65;2.65;;;;;;;2.13;87.68;94332.72;5008899;28;20042;-70
2022/09/20 03:08:22;;;;;;;5.85;2.85;;;;;;;2.17;87.32;94332.78;5009623;28;20479;-69
2022/09/20 03:11:06;;;;;;;6.50;2.90;;;;;;;2.17;87.58;94333.59;5008670;28;20556;-70
2022/09/20 03:13:49;;;;;;;10.60;4.45;;;;;;;2.15;88.10;94332.34;5008501;28;20056;-69
2022/09/20 03:16:33;;;;;;;6.97;3.37;;;;;;;2.16;87.50;94328.53;5009013;28;20049;-70
2022/09/20 03:19:25;;;;;;;9.30;3.75;;;;;;;2.05;87.92;94324.75;5009406;28;20087;-69
2022/09/20 03:22:18;;;;;;;9.27;3.33;;;;;;;2.00;88.74;94336.66;5008744;28;20076;-69
2022/09/20 03:25:06;;;;;;;4.93;2.47;;;;;;;1.99;88.32;94335.06;5008061;28;20850;-70
2022/09/20 03:27:42;;;;;;;5.97;2.92;;;;;;;2.02;87.53;94336.31;5007993;28;20495;-71
2022/09/20 03:30:27;;;;;;;6.20;2.70;;;;;;;2.06;88.02;94331.75;5008963;28;20445;-67
2022/09/20 03:33:17;;;;;;;6.93;2.95;;;;;;;2.03;87.62;94333.22;5008718;28;20046;-69
2022/09/20 03:35:57;;;;;;;7.38;3.15;;;;;;;1.78;88.86;94336.13;5007081;28;21716;-70
2022/09/20 03:38:52;;;;;;;6.65;3.03;;;;;;;1.92;88.72;94332.97;5007877;28;20056;-71
2022/09/20 03:41:48;;;;;;;6.45;3.17;;;;;;;1.90;89.03;94335.25;5008464;28;20491;-70
2022/09/20 03:44:38;;;;;;;6.43;2.70;;;;;;;1.97;88.36;94337.34;5006944;28;20038;-70
2022/09/20 03:47:50;;;;;;;7.77;2.87;;;;;;;1.95;88.48;94339.63;4970851;28;1096817;-70
2022/09/20 03:50:38;;;;;;;5.38;2.47;;;;;;;2.00;88.06;94336.66;5006609;28;20662;-70
2022/09/20 03:53:05;;;;;;;7.55;3.33;;;;;;;2.04;87.66;94340.22;5009582;28;20050;-70
2022/09/20 03:55:57;;;;;;;6.80;2.90;;;;;;;2.02;87.53;94333.59;5007375;28;20052;-69
2022/09/20 03:58:33;;;;;;;6.93;2.90;;;;;;;1.98;87.74;94342.41;4998719;28;20045;-69
2022/09/20 04:01:22;;;;;;;7.47;2.77;;;;;;;2.05;87.53;94335.59;5009272;28;20129;-69
2022/09/20 04:04:03;;;;;;;8.70;3.40;;;;;;;2.04;87.22;94339.44;5007965;28;20226;-70
2022/09/20 04:06:48;;;;;;;8.88;3.50;;;;;;;2.07;86.93;94331.38;4995866;28;20127;-70
2022/09/20 04:09:42;;;;;;;7.95;3.22;;;;;;;2.07;86.93;94338.72;5009114;28;20056;-70
2022/09/20 04:12:29;;;;;;;8.65;3.40;;;;;;;1.99;87.32;94341.28;5008874;28;20405;-67
2022/09/20 04:15:14;;;;;;;5.97;3.00;;;;;;;2.05;87.00;94344.50;4995878;28;20072;-70
2022/09/20 04:18:18;;;;;;;7.88;3.10;;;;;;;1.98;86.96;94344.34;5008134;28;20473;-70
2022/09/20 04:20:55;;;;;;;23.05;10.52;;;;;;;2.00;86.98;94345.56;5008130;28;20578;-70
2022/09/20 04:23:42;;;;;;;22.95;10.20;;;;;;;2.07;87.19;94344.16;5008552;28;20041;-69
2022/09/20 04:26:08;;;;;;;11.75;4.80;;;;;;;2.11;86.71;94340.41;5008800;28;20042;-65
2022/09/20 04:28:54;;;;;;;9.43;4.27;;;;;;;2.12;86.29;94341.19;5008799;28;20045;-69
2022/09/20 04:31:33;;;;;;;10.68;5.10;;;;;;;2.17;86.29;94340.91;5007378;28;20058;-69
2022/09/20 04:34:02;;;;;;;25.52;10.20;;;;;;;2.16;86.09;94337.41;5009035;28;20060;-70
2022/09/20 04:36:50;;;;;;;15.55;7.28;;;;;;;2.13;86.32;94340.84;5008449;28;20058;-70
2022/09/20 04:39:44;;;;;;;14.43;6.50;;;;;;;2.03;86.73;94337.88;5008452;28;20056;-70
2022/09/20 04:42:35;;;;;;;14.13;6.57;;;;;;;2.10;86.45;94340.75;5008530;28;20508;-69
2022/09/20 04:45:30;;;;;;;11.98;6.10;;;;;;;2.02;86.59;94350.63;5009219;28;20411;-70
2022/09/20 04:48:19;;;;;;;15.77;7.57;;;;;;;2.04;86.15;94347.56;5011361;28;20049;-69
2022/09/20 04:51:22;;;;;;;23.75;11.68;;;;;;;2.06;86.23;94351.50;5011295;28;21725;-70
2022/09/20 04:54:25;;;;;;;29.73;15.35;;;;;;;2.00;86.47;94347.47;5011207;28;21865;-69
2022/09/20 04:57:20;;;;;;;15.53;9.33;;;;;;;1.97;86.72;94346.28;5009358;28;20571;-69
2022/09/20 05:00:01;;;;;;;13.63;5.85;;;;;;;1.99;86.69;94352.13;5011225;28;20427;-70
2022/09/20 05:02:41;;;;;;;12.50;6.90;;;;;;;1.81;86.66;94348.16;5011784;28;21807;-69
2022/09/20 05:05:42;;;;;;;11.40;5.28;;;;;;;1.74;87.26;94348.78;5012014;28;20044;-70
2022/09/20 05:08:31;;;;;;;10.50;4.30;;;;;;;1.80;86.94;94349.31;5010708;28;20694;-68
2022/09/20 05:11:29;;;;;;;8.57;4.27;;;;;;;1.69;87.78;94353.66;5011815;28;20054;-69
2022/09/20 05:14:27;;;;;;;12.65;5.13;;;;;;;1.80;86.71;94354.72;5010759;28;20387;-70
2022/09/20 05:17:13;;;;;;;12.52;5.68;;;;;;;1.86;86.78;94358.75;4980659;28;20113;-69
2022/09/20 05:20:11;;;;;;;10.30;5.30;;;;;;;1.89;87.31;94368.06;5010832;28;20681;-69
2022/09/20 05:22:56;;;;;;;9.38;4.75;;;;;;;1.95;86.93;94363.97;4993847;28;20038;-70
2022/09/20 05:25:41;;;;;;;7.20;4.37;;;;;;;1.97;86.92;94367.91;5011287;28;20045;-70
2022/09/20 05:28:37;;;;;;;10.13;4.97;;;;;;;1.96;86.96;94371.75;5011782;28;20048;-70
2022/09/20 05:31:12;;;;;;;8.70;4.22;;;;;;;2.02;87.00;94372.28;5010720;28;20462;-69
2022/09/20 05:33:53;;;;;;;9.20;5.00;;;;;;;2.06;87.50;94375.06;5010474;28;20375;-69
2022/09/20 05:36:45;;;;;;;11.43;5.38;;;;;;;2.09;86.93;94385.19;5010729;28;20091;-69
2022/09/20 05:39:33;;;;;;;15.43;6.73;;;;;;;2.06;86.14;94375.06;4996686;28;20042;-69
2022/09/20 05:42:23;;;;;;;15.65;7.63;;;;;;;2.06;86.08;94372.38;5011225;28;20045;-70
2022/09/20 05:44:53;;;;;;;13.60;6.63;;;;;;;2.25;85.45;94374.34;5009716;28;20801;-69
2022/09/20 05:47:33;;;;;;;11.77;6.43;;;;;;;2.32;85.00;94374.53;5010773;28;20056;-69
2022/09/20 05:50:22;;;;;;;13.88;6.85;;;;;;;2.39;85.20;94372.78;5011616;28;20049;-70
2022/09/20 05:53:21;;;;;;;12.27;6.57;;;;;;;2.36;85.21;94376.19;5010036;28;21282;-69
2022/09/20 05:55:57;;;;;;;10.52;5.75;;;;;;;2.51;84.84;94380.00;5025252;28;20038;-69
2022/09/20 05:58:33;;;;;;;14.40;7.47;;;;;;;2.39;83.58;94380.91;5009416;28;20054;-70
2022/09/20 06:01:52;;;;;;;11.52;6.05;;;;;;;2.47;83.64;94378.34;5011245;28;20436;-70
2022/09/20 06:04:24;;;;;;;12.00;5.93;;;;;;;2.38;83.17;94387.44;4992261;28;21751;-69
2022/09/20 06:07:12;;;;;;;11.80;6.37;;;;;;;2.60;83.38;94379.81;5010598;28;20049;-68
2022/09/20 06:10:29;;;;;;;23.30;12.63;;;;;;;2.69;82.74;94379.63;5009561;28;20143;-68
2022/09/20 06:13:14;;;;;;;15.90;9.20;;;;;;;2.86;82.92;94383.84;5009736;28;20399;-68
2022/09/20 06:16:06;;;;;;;13.93;6.80;;;;;;;3.01;83.41;94377.59;5009562;28;20079;-69
2022/09/20 06:18:52;;;;;;;13.32;8.18;;;;;;;3.16;83.40;94371.31;5010346;28;20042;-68
2022/09/20 06:21:39;;;;;;;14.47;7.40;;;;;;;3.26;84.35;94380.00;5010373;28;20501;-68
2022/09/20 06:24:25;;;;;;;20.58;9.75;;;;;;;2.80;83.82;94373.28;5010058;28;20042;-69
2022/09/20 06:26:55;;;;;;;16.92;8.60;;;;;;;2.97;83.96;94379.44;5009298;28;20407;-69
2022/09/20 06:29:32;;;;;;;19.67;8.77;;;;;;;3.20;83.36;94374.13;5009792;28;20594;-68
2022/09/20 06:31:59;;;;;;;17.17;9.40;;;;;;;3.34;83.16;94370.88;5010054;28;20483;-68
2022/09/20 06:34:27;;;;;;;18.60;9.37;;;;;;;3.48;83.21;94376.59;5008356;28;20048;-70
2022/09/20 06:42:52;;;;;;;15.25;7.38;;;;;;;3.78;83.95;94378.66;5007159;28;20508;-68
2022/09/20 06:45:19;;;;;;;18.70;8.68;;;;;;;3.89;83.79;94379.66;5008791;28;20053;-68
2022/09/20 06:47:45;;;;;;;19.80;8.47;;;;;;;3.67;85.82;94372.28;5009794;28;20045;-68
2022/09/20 06:50:16;;;;;;;21.90;8.38;;;;;;;3.97;84.30;94386.00;5009709;28;20049;-69
2022/09/20 06:52:44;;;;;;;15.98;6.68;;;;;;;4.13;85.40;94378.50;5009695;28;20088;-68
2022/09/20 06:55:39;;;;;;;15.13;6.50;;;;;;;4.56;82.52;94378.41;5009774;28;20046;-68
2022/09/20 06:58:08;;;;;;;13.27;6.35;;;;;;;4.06;84.87;94375.66;4996904;28;20046;-68
2022/09/20 07:00:35;;;;;;;13.97;6.73;;;;;;;4.67;83.59;94384.78;5009464;28;20141;-68
2022/09/20 07:03:01;;;;;;;10.90;5.30;;;;;;;4.31;84.36;94388.91;5009998;28;20287;-69
2022/09/20 07:05:28;;;;;;;17.75;4.90;;;;;;;4.64;85.01;94392.88;5008328;28;20487;-68
2022/09/20 07:07:58;;;;;;;12.40;5.00;;;;;;;4.32;86.92;94385.00;5008331;28;20041;-68
2022/09/20 07:10:28;;;;;;;10.95;5.13;;;;;;;5.80;84.24;94393.97;5009601;28;20042;-68
2022/09/20 07:13:00;;;;;;;11.83;5.50;;;;;;;8.93;72.55;94386.09;5009719;28;20038;-69
2022/09/20 07:15:30;;;;;;;8.98;4.80;;;;;;;10.76;63.83;94384.44;5024277;28;20118;-66
2022/09/20 07:17:57;;;;;;;10.45;4.53;;;;;;;14.06;54.89;94381.63;5009599;28;20057;-67
2022/09/20 07:20:24;;;;;;;9.20;4.50;;;;;;;13.22;52.75;94383.59;5009363;28;20484;-67
2022/09/20 07:22:52;;;;;;;9.30;4.70;;;;;;;16.29;46.42;94379.59;5009744;28;20046;-67
2022/09/20 07:25:19;;;;;;;7.63;3.80;;;;;;;16.09;45.24;94385.31;5009263;28;20107;-68
2022/09/20 07:27:49;;;;;;;7.13;3.55;;;;;;;16.73;44.59;94383.38;5009773;28;20042;-67
2022/09/20 07:30:17;;;;;;;10.07;4.60;;;;;;;14.46;49.39;94387.06;5009278;28;20045;-68
2022/09/20 07:32:44;;;;;;;8.93;5.05;;;;;;;14.76;49.78;94386.00;5009580;28;20457;-67
2022/09/20 07:35:11;;;;;;;10.55;5.25;;;;;;;15.04;48.86;94387.28;5009290;28;20054;-68
2022/09/20 07:37:40;;;;;;;5.87;3.20;;;;;;;13.01;55.71;94401.31;5009525;28;20495;-69
2022/09/20 07:40:09;;;;;;;6.47;2.67;;;;;;;13.27;56.29;94399.69;5009870;28;20044;-67
2022/09/20 07:42:36;;;;;;;8.93;3.50;;;;;;;13.33;54.34;94400.78;5007317;28;20819;-68
2022/09/20 07:45:03;;;;;;;7.50;2.90;;;;;;;13.71;53.99;94397.72;5009331;28;20400;-67
2022/09/20 07:47:34;;;;;;;7.65;3.28;;;;;;;13.85;54.33;94400.19;5008798;28;20536;-67
2022/09/20 07:50:01;;;;;;;8.83;3.20;;;;;;;14.01;53.98;94402.22;5009488;28;20048;-68
2022/09/20 07:52:28;;;;;;;9.10;3.72;;;;;;;13.04;56.86;94411.47;5009083;28;20384;-68
2022/09/20 07:54:55;;;;;;;8.82;3.97;;;;;;;11.48;60.10;94411.22;5009311;28;20049;-67
2022/09/20 07:57:22;;;;;;;9.63;3.85;;;;;;;10.96;62.68;94415.63;5008886;28;20072;-68
2022/09/20 07:59:48;;;;;;;6.78;4.00;;;;;;;12.24;61.29;94422.13;5009187;28;20041;-67
2022/09/20 08:02:15;;;;;;;8.53;3.80;;;;;;;14.85;52.23;94413.81;5008870;28;20050;-68
2022/09/20 08:04:43;;;;;;;8.27;3.85;;;;;;;15.34;50.69;94404.72;5009393;28;20053;-68
2022/09/20 08:07:09;;;;;;;7.50;3.65;;;;;;;16.19;49.13;94411.91;5009187;28;20058;-68
2022/09/20 08:09:36;;;;;;;10.75;4.50;;;;;;;14.34;52.62;94405.84;5009230;28;20042;-68
2022/09/20 08:12:04;;;;;;;8.73;4.30;;;;;;;13.56;57.04;94402.69;5007906;28;20041;-68
2022/09/20 08:14:51;;;;;;;8.13;4.10;;;;;;;14.51;53.37;94401.16;5007999;28;21865;-68
2022/09/20 08:17:18;;;;;;;9.48;4.15;;;;;;;15.45;51.19;94404.44;5008809;28;20550;-68
2022/09/20 08:19:45;;;;;;;11.13;4.32;;;;;;;15.17;52.36;94401.19;5009021;28;20398;-68
2022/09/20 08:22:11;;;;;;;7.43;3.50;;;;;;;13.84;55.75;94403.34;5011210;28;20499;-69
2022/09/20 08:24:38;;;;;;;8.35;3.65;;;;;;;14.24;54.17;94404.09;5012841;28;20052;-68
2022/09/20 08:27:05;;;;;;;8.07;3.60;;;;;;;14.84;52.06;94406.72;5013037;28;20368;-67
2022/09/20 08:29:31;;;;;;;7.15;3.78;;;;;;;13.45;55.56;94411.19;5012303;28;20042;-68
2022/09/20 08:32:00;;;;;;;6.85;3.83;;;;;;;14.28;54.47;94407.56;5012821;28;20104;-68
2022/09/20 08:34:27;;;;;;;9.48;3.90;;;;;;;14.77;52.13;94407.69;5011103;28;20384;-68
2022/09/20 08:36:55;;;;;;;7.85;3.50;;;;;;;14.82;52.24;94409.16;5012746;28;20554;-69
2022/09/20 08:39:23;;;;;;;6.47;3.37;;;;;;;14.59;53.10;94410.09;5012101;28;20072;-68
2022/09/20 08:42:32;;;;;;;6.70;3.33;;;;;;;15.88;49.02;94414.41;5010171;28;20054;-66
2022/09/20 08:45:14;;;;;;;6.60;3.28;;;;;;;15.57;51.02;94404.50;5004318;28;20038;-68
2022/09/20 08:48:01;;;;;;;8.57;3.40;;;;;;;16.38;46.88;94410.19;5008284;28;21667;-68
2022/09/20 08:50:27;;;;;;;6.38;3.15;;;;;;;15.29;50.46;94413.53;5012166;28;20069;-69
2022/09/20 08:52:56;;;;;;;7.20;3.17;;;;;;;15.72;50.22;94409.66;5012505;28;20083;-69
2022/09/20 08:55:30;;;;;;;6.20;2.40;;;;;;;16.06;47.21;94403.59;5012122;28;20111;-69
2022/09/20 08:58:02;;;;;;;4.65;1.70;;;;;;;17.43;40.48;94402.94;5011978;28;20045;-69
2022/09/20 09:00:36;;;;;;;4.57;1.85;;;;;;;19.69;36.78;94394.34;5011339;28;21442;-69
2022/09/20 09:03:16;;;;;;;3.42;1.40;;;;;;;20.04;32.94;94396.84;5012247;28;20096;-69
2022/09/20 09:05:51;;;;;;;5.47;1.13;;;;;;;21.37;31.47;94390.69;5011209;28;20068;-69
2022/09/20 09:08:26;;;;;;;5.78;1.67;;;;;;;20.63;34.47;94407.00;5011783;28;20046;-68
2022/09/20 09:10:56;;;;;;;3.13;1.10;;;;;;;21.59;29.45;94406.38;5012316;28;20050;-69
2022/09/20 09:13:42;;;;;;;3.85;1.10;;;;;;;22.24;28.50;94395.50;5011857;28;20049;-68
2022/09/20 09:16:14;;;;;;;3.95;1.20;;;;;;;19.38;31.85;94410.38;5011434;28;20103;-65
2022/09/20 09:18:44;;;;;;;3.30;1.00;;;;;;;19.27;32.61;94402.50;5012119;28;20427;-69
2022/09/20 09:21:21;;;;;;;3.17;0.90;;;;;;;22.50;28.01;94393.69;5011481;28;20119;-68
2022/09/20 09:24:00;;;;;;;2.80;1.10;;;;;;;24.68;25.75;94385.09;5011881;28;20406;-69
2022/09/20 09:26:33;;;;;;;3.00;1.00;;;;;;;21.88;28.01;94400.13;5011020;28;20396;-69
2022/09/20 09:29:10;;;;;;;2.55;1.02;;;;;;;21.25;29.69;94400.03;5011793;28;20038;-69
2022/09/20 09:31:38;;;;;;;4.37;1.10;;;;;;;23.07;26.54;94397.41;5011044;28;20861;-70
2022/09/20 09:34:23;;;;;;;3.45;1.10;;;;;;;20.81;30.23;94400.59;5011398;28;20050;-69
2022/09/20 09:36:50;;;;;;;4.20;1.30;;;;;;;22.89;27.91;94393.56;5010903;28;20418;-69
2022/09/20 09:39:36;;;;;;;3.25;1.05;;;;;;;25.52;24.65;94392.63;5010880;28;20042;-69
2022/09/20 09:42:27;;;;;;;5.78;1.20;;;;;;;22.00;28.45;94398.34;5009998;28;20042;-69
2022/09/20 09:45:10;;;;;;;3.00;1.00;;;;;;;20.35;31.56;94402.22;5009024;28;20137;-68
2022/09/20 09:47:37;;;;;;;3.25;0.95;;;;;;;24.54;25.71;94388.81;4997064;28;20785;-69
2022/09/20 09:50:04;;;;;;;4.03;1.20;;;;;;;19.72;32.28;94392.69;5011270;28;20046;-69
2022/09/20 09:52:35;;;;;;;3.55;1.20;;;;;;;19.69;33.81;94396.34;5010463;28;20871;-67
2022/09/20 09:55:03;;;;;;;3.72;1.58;;;;;;;20.03;32.36;94386.94;5009577;28;20046;-68
2022/09/20 09:58:00;;;;;;;3.23;1.27;;;;;;;19.49;33.24;94385.66;5010921;28;20091;-68
2022/09/20 10:00:30;;;;;;;2.45;0.90;;;;;;;17.29;36.13;94400.63;4991835;28;20394;-68
2022/09/20 10:03:08;;;;;;;2.40;0.80;;;;;;;17.35;35.29;94391.28;5010774;28;20099;-68
2022/09/20 10:05:47;;;;;;;3.70;1.02;;;;;;;17.79;33.67;94396.16;5010012;28;20068;-68
2022/09/20 10:08:29;;;;;;;4.07;0.77;;;;;;;17.21;33.90;94394.56;5010486;28;20042;-67
2022/09/20 10:11:12;;;;;;;2.90;0.83;;;;;;;16.14;36.22;94395.84;5010718;28;20406;-68
2022/09/20 10:14:06;;;;;;;3.28;1.00;;;;;;;21.01;30.14;94389.63;5010111;28;20671;-68
2022/09/20 10:17:20;;;;;;;3.88;1.00;;;;;;;22.15;27.35;94379.53;5010249;28;20052;-68
2022/09/20 10:20:17;;;;;;;3.28;0.88;;;;;;;21.33;27.67;94387.31;4968216;28;20117;-68
2022/09/20 10:23:06;;;;;;;2.50;0.80;;;;;;;18.24;32.78;94392.16;4968186;28;20042;-69
2022/09/20 10:26:06;;;;;;;3.03;1.10;;;;;;;17.94;33.31;94388.88;5002004;28;20704;-68
2022/09/20 10:28:47;;;;;;;2.00;0.80;;;;;;;17.95;33.25;94392.44;5010111;28;20091;-68
2022/09/20 10:31:31;;;;;;;2.83;0.85;;;;;;;23.34;25.86;94376.66;5010142;28;20061;-68
2022/09/20 10:34:44;;;;;;;2.30;0.90;;;;;;;22.07;27.19;94386.75;5010013;28;20050;-68
2022/09/20 10:37:43;;;;;;;2.78;1.00;;;;;;;19.52;30.43;94385.53;4988335;28;20076;-67
2022/09/20 10:40:14;;;;;;;3.23;1.30;;;;;;;19.24;31.21;94387.50;5010140;28;20045;-69
2022/09/20 10:45:40;;;;;;;2.97;1.27;;;;;;;19.61;31.27;94381.19;5009628;28;20046;-68
2022/09/20 10:48:34;;;;;;;2.70;0.90;;;;;;;17.82;33.40;94378.56;5008101;28;20049;-68
2022/09/20 10:51:14;;;;;;;3.72;1.00;;;;;;;17.77;34.51;94381.94;5008748;28;20045;-68
2022/09/20 10:54:09;;;;;;;3.60;1.00;;;;;;;18.32;33.46;94379.53;5009470;28;21708;-68
2022/09/20 10:56:48;;;;;;;4.78;1.60;;;;;;;17.73;32.73;94384.06;5001369;28;20243;-68
2022/09/20 10:59:21;;;;;;;2.78;1.05;;;;;;;16.52;35.13;94386.78;5009469;28;20042;-68
2022/09/20 11:02:10;;;;;;;8.35;2.20;;;;;;;16.27;35.78;94387.56;5010218;28;20103;-68
2022/09/20 11:05:24;;;;;;;2.97;1.30;;;;;;;17.14;34.02;94387.25;5009021;28;20712;-68
2022/09/20 11:08:07;;;;;;;2.40;0.70;;;;;;;14.78;35.63;94391.88;4977254;28;20679;-68
2022/09/20 11:10:59;;;;;;;1.92;0.70;;;;;;;14.84;35.87;94390.16;5009197;28;20611;-68
2022/09/20 11:13:47;;;;;;;2.10;1.00;;;;;;;15.77;34.92;94392.53;5009128;28;20128;-68
2022/09/20 11:16:25;;;;;;;4.45;1.30;;;;;;;15.81;34.36;94387.66;5008851;28;20053;-67
2022/09/20 11:19:01;;;;;;;3.38;1.20;;;;;;;16.52;34.31;94395.91;5009753;28;20178;-68
2022/09/20 11:21:51;;;;;;;3.33;0.80;;;;;;;16.42;33.79;94391.47;5009331;28;20509;-68
2022/09/20 11:24:33;;;;;;;3.17;1.02;;;;;;;17.46;31.54;94388.13;5009392;28;20060;-67
2022/09/20 11:27:39;;;;;;;2.13;1.00;;;;;;;17.71;32.89;94387.28;5008168;28;20092;-68
2022/09/20 11:30:18;;;;;;;4.13;1.20;;;;;;;17.27;32.97;94392.00;5007702;28;20266;-68
2022/09/20 11:32:52;;;;;;;2.70;1.08;;;;;;;16.55;34.21;94388.69;5009079;28;20204;-68
2022/09/20 11:35:26;;;;;;;3.53;1.03;;;;;;;16.54;34.30;94396.25;5007399;28;20395;-68
2022/09/20 11:38:03;;;;;;;2.65;1.00;;;;;;;16.47;34.47;94395.69;5009482;28;20042;-70
2022/09/20 11:40:35;;;;;;;3.17;1.40;;;;;;;17.55;32.31;94391.00;5009094;28;20046;-67
2022/09/20 11:43:06;;;;;;;3.42;1.20;;;;;;;18.23;31.79;94387.84;5009643;28;20038;-68
2022/09/20 11:45:34;;;;;;;2.47;1.05;;;;;;;16.46;32.57;94389.38;5009135;28;20407;-68
2022/09/20 11:48:24;;;;;;;3.70;1.20;;;;;;;16.93;32.30;94385.16;5009133;28;20038;-68
2022/09/20 11:51:19;;;;;;;3.35;1.20;;;;;;;14.51;37.26;94387.34;5006223;28;20406;-68
2022/09/20 11:53:46;;;;;;;4.28;1.05;;;;;;;14.67;35.96;94381.09;5008473;28;20617;-68
2022/09/20 11:56:22;;;;;;;3.08;1.10;;;;;;;15.28;37.64;94392.63;5011002;28;20484;-68
2022/09/20 11:58:54;;;;;;;2.50;1.13;;;;;;;16.44;36.42;94386.25;5013395;28;20095;-67
2022/09/20 12:01:27;;;;;;;4.67;1.77;;;;;;;15.92;37.26;94393.69;5011731;28;20054;-68
2022/09/20 12:03:59;;;;;;;3.40;1.30;;;;;;;16.70;35.89;94394.56;5012860;28;20041;-68
2022/09/20 12:06:46;;;;;;;4.65;1.20;;;;;;;17.12;35.24;94386.91;5012418;28;21691;-67
2022/09/20 12:09:32;;;;;;;4.00;1.40;;;;;;;15.41;38.28;94390.69;5012630;28;20447;-67
2022/09/20 12:12:14;;;;;;;5.32;1.50;;;;;;;15.74;38.03;94388.66;5013090;28;20037;-67
2022/09/20 12:14:41;;;;;;;3.10;1.20;;;;;;;16.78;37.22;94391.13;5011711;28;20677;-67
2022/09/20 12:17:45;;;;;;;3.30;1.40;;;;;;;16.22;39.01;94386.13;5012501;28;20054;-67
2022/09/20 12:20:31;;;;;;;3.25;1.40;;;;;;;15.63;40.10;94398.44;5011199;28;21596;-67
2022/09/20 12:23:35;;;;;;;4.43;1.60;;;;;;;15.87;39.48;94396.22;5012603;28;20038;-68
2022/09/20 12:26:20;;;;;;;4.75;1.65;;;;;;;16.06;39.11;94389.75;5011797;28;20208;-67
2022/09/20 12:28:49;;;;;;;5.27;1.63;;;;;;;14.78;42.27;94387.13;5011989;28;20427;-68
2022/09/20 12:31:28;;;;;;;6.70;1.50;;;;;;;13.77;44.31;94396.00;5012091;28;20054;-68
2022/09/20 12:34:02;;;;;;;5.93;1.60;;;;;;;14.11;43.44;94392.19;5012760;28;20068;-68
2022/09/20 12:36:38;;;;;;;5.60;1.27;;;;;;;13.67;44.44;94386.75;5012641;28;20060;-68
2022/09/20 12:39:10;;;;;;;9.70;1.80;;;;;;;14.22;43.76;94367.84;5012740;28;20038;-68
2022/09/20 12:41:49;;;;;;;3.70;1.60;;;;;;;15.07;41.74;94377.34;5011802;28;20065;-69
2022/09/20 12:44:33;;;;;;;3.63;1.30;;;;;;;14.15;42.98;94376.31;5011933;28;20049;-68